Time;durP1;ratioP1;P1;durP2;ratioP2;P2;SDS_P1;SDS_P2;PMS_P1;PMS_P2;Temp;Humidity;BMP_temperature;BMP_pressure;BME280_temperature;BME280_humidity;BME280_pressure;Samples;Min_cycle;Max_cycle;Signal;HPM_P1;HPM_P2
2021/06/12 00:01:49;;;;;;;5.82;2.88;;;23.30;97.50;;;;;;4164234;28;20132;-73
2021/06/12 00:03:52;;;;;;;8.27;2.80;;;23.30;97.50;;;;;;4147276;28;20054;-81
2021/06/12 00:05:55;;;;;;;3.95;2.20;;;23.30;97.30;;;;;;4165661;28;20053;-75
2021/06/12 00:07:58;;;;;;;4.53;2.42;;;23.40;97.40;;;;;;4165790;28;20064;-75
2021/06/12 00:10:04;;;;;;;5.68;2.40;;;23.30;97.40;;;;;;4165479;28;20053;-80
2021/06/12 00:12:08;;;;;;;12.63;2.67;;;23.30;97.50;;;;;;4165711;28;20116;-74
2021/06/12 00:14:12;;;;;;;4.00;2.30;;;23.20;97.60;;;;;;4168511;28;20576;-75
2021/06/12 00:16:17;;;;;;;4.07;2.10;;;23.00;97.50;;;;;;4169001;28;20061;-74
2021/06/12 00:18:20;;;;;;;3.40;2.22;;;22.90;97.50;;;;;;4171117;28;20058;-79
2021/06/12 00:20:28;;;;;;;3.08;1.98;;;23.00;97.20;;;;;;4166098;28;20068;-79
2021/06/12 00:22:31;;;;;;;3.55;2.20;;;23.00;96.70;;;;;;4167527;28;20058;-74
2021/06/12 00:24:35;;;;;;;3.60;1.70;;;23.10;96.10;;;;;;4170995;28;20080;-74
2021/06/12 00:26:39;;;;;;;3.45;1.70;;;23.10;95.80;;;;;;4168332;28;20050;-75
2021/06/12 00:28:42;;;;;;;3.13;1.40;;;23.10;95.50;;;;;;4138026;28;20058;-75
2021/06/12 00:30:45;;;;;;;3.58;1.67;;;22.90;95.20;;;;;;4148839;28;20054;-74
2021/06/12 00:32:49;;;;;;;4.63;1.30;;;23.00;94.90;;;;;;4147326;28;20054;-74
2021/06/12 00:34:52;;;;;;;2.05;1.17;;;22.90;94.90;;;;;;4151234;28;20054;-77
2021/06/12 00:36:55;;;;;;;2.95;0.95;;;23.00;94.50;;;;;;4149519;28;20061;-75
2021/06/12 00:38:58;;;;;;;2.47;1.05;;;22.90;94.10;;;;;;4147457;28;20104;-77
2021/06/12 00:41:01;;;;;;;2.35;1.05;;;22.90;94.00;;;;;;4148137;28;20050;-75
2021/06/12 00:43:05;;;;;;;1.70;0.93;;;22.80;94.10;;;;;;4147553;28;20058;-75
2021/06/12 00:45:12;;;;;;;2.28;0.80;;;22.80;94.00;;;;;;4147055;28;20058;-78
2021/06/12 00:47:15;;;;;;;2.42;0.90;;;22.90;94.00;;;;;;4147558;28;20053;-72
2021/06/12 00:49:20;;;;;;;3.65;0.93;;;22.70;94.20;;;;;;4147652;28;20145;-75
2021/06/12 00:51:23;;;;;;;1.30;1.02;;;22.70;94.20;;;;;;4147606;28;20054;-75
2021/06/12 00:53:41;;;;;;;1.88;0.90;;;22.50;94.50;;;;;;4147661;28;20376;-75
2021/06/12 00:55:45;;;;;;;1.52;0.90;;;22.50;94.80;;;;;;4146895;28;20489;-74
2021/06/12 00:57:48;;;;;;;2.85;1.10;;;22.50;94.90;;;;;;4147117;28;20406;-79
2021/06/12 00:59:53;;;;;;;1.77;0.95;;;22.70;94.30;;;;;;4147006;28;20050;-81
2021/06/12 01:01:56;;;;;;;2.53;1.20;;;22.80;93.80;;;;;;4134145;28;20097;-82
2021/06/12 01:03:59;;;;;;;2.97;0.90;;;23.00;93.50;;;;;;4154514;28;20405;-81
2021/06/12 01:06:02;;;;;;;1.10;0.70;;;23.00;93.50;;;;;;4153087;28;20058;-78
2021/06/12 01:08:06;;;;;;;1.00;0.90;;;22.90;93.50;;;;;;4153025;28;20085;-77
2021/06/12 01:10:11;;;;;;;1.92;1.00;;;23.00;93.20;;;;;;4155817;28;20065;-77
2021/06/12 01:12:21;;;;;;;1.27;0.90;;;23.10;93.10;;;;;;4154376;28;20255;-75
2021/06/12 01:14:28;;;;;;;2.92;1.10;;;23.10;92.80;;;;;;4136265;28;20058;-75
2021/06/12 01:16:38;;;;;;;3.17;1.23;;;23.20;92.90;;;;;;4152139;28;20045;-75
2021/06/12 01:18:44;;;;;;;1.52;1.02;;;23.20;92.60;;;;;;4156126;28;20588;-75
2021/06/12 01:20:58;;;;;;;2.25;0.88;;;23.20;92.80;;;;;;4156274;28;20430;-75
2021/06/12 01:23:36;;;;;;;2.78;1.08;;;23.10;92.50;;;;;;4151289;28;20045;-78
2021/06/12 01:25:54;;;;;;;4.35;1.23;;;22.90;92.50;;;;;;4118989;28;20523;-75
2021/06/12 01:28:22;;;;;;;1.83;1.13;;;23.00;92.50;;;;;;4140355;28;20410;-74
2021/06/12 01:30:27;;;;;;;6.43;1.00;;;23.00;92.60;;;;;;4157871;28;20061;-75
2021/06/12 01:32:34;;;;;;;2.33;1.02;;;22.90;92.70;;;;;;4166099;28;20053;-75
2021/06/12 01:34:39;;;;;;;2.60;1.10;;;22.90;92.70;;;;;;4169052;28;20045;-76
2021/06/12 01:36:42;;;;;;;;;;;22.90;92.60;;;;;;4175587;28;20067;-77
2021/06/12 01:38:48;;;;;;;4.57;1.25;;;22.90;92.60;;;;;;4165599;28;19947;-76
2021/06/12 01:40:54;;;;;;;4.55;1.08;;;22.80;92.50;;;;;;4164992;28;20103;-74
2021/06/12 01:42:59;;;;;;;2.75;1.00;;;22.80;92.50;;;;;;4165967;28;20396;-80
2021/06/12 01:45:03;;;;;;;3.83;0.98;;;22.80;92.60;;;;;;4167193;28;20119;-79
2021/06/12 01:47:08;;;;;;;4.20;1.40;;;22.80;92.60;;;;;;4167636;28;20087;-81
2021/06/12 01:49:13;;;;;;;1.83;1.10;;;22.80;92.60;;;;;;4166023;28;20084;-75
2021/06/12 01:51:16;;;;;;;;;;;22.80;92.30;;;;;;4165975;28;20618;-75
2021/06/12 01:53:30;;;;;;;3.80;1.17;;;22.70;92.60;;;;;;4165292;28;19936;-75
2021/06/12 01:55:35;;;;;;;3.08;1.23;;;22.80;92.80;;;;;;4164757;28;20062;-76
2021/06/12 01:57:41;;;;;;;4.65;1.30;;;22.70;92.90;;;;;;4165583;28;20058;-78
2021/06/12 01:59:46;;;;;;;2.28;1.30;;;22.40;93.40;;;;;;4167022;28;20053;-75
2021/06/12 02:01:52;;;;;;;3.88;1.30;;;22.50;93.20;;;;;;4165941;28;20053;-74
2021/06/12 02:04:00;;;;;;;4.35;1.50;;;22.50;93.40;;;;;;4165062;28;20057;-75
2021/06/12 02:06:04;;;;;;;2.75;1.40;;;22.60;93.20;;;;;;4164408;28;20164;-75
2021/06/12 02:08:09;;;;;;;2.15;1.38;;;22.60;92.90;;;;;;4164691;28;20103;-75
2021/06/12 02:10:13;;;;;;;3.38;1.20;;;22.70;92.70;;;;;;4164919;28;20545;-74
2021/06/12 02:12:16;;;;;;;2.73;0.93;;;22.70;92.70;;;;;;4165321;28;20050;-74
2021/06/12 02:14:20;;;;;;;4.18;1.20;;;22.60;93.00;;;;;;4165162;28;20497;-76
2021/06/12 02:16:24;;;;;;;1.58;0.90;;;22.50;93.40;;;;;;4165985;28;20469;-76
2021/06/12 02:18:28;;;;;;;4.00;1.38;;;22.50;93.20;;;;;;4148846;28;20058;-74
2021/06/12 02:20:35;;;;;;;3.33;1.40;;;22.50;93.50;;;;;;4166014;28;20140;-76
2021/06/12 02:22:42;;;;;;;4.47;1.30;;;22.50;93.50;;;;;;4148716;28;20132;-76
2021/06/12 02:24:45;;;;;;;3.08;1.42;;;22.40;93.60;;;;;;4165023;28;20629;-76
2021/06/12 02:26:53;;;;;;;2.65;1.55;;;22.40;93.80;;;;;;4164852;28;20446;-75
2021/06/12 02:28:58;;;;;;;1.83;1.20;;;22.20;94.20;;;;;;4152011;28;20547;-76
2021/06/12 02:31:07;;;;;;;2.65;1.45;;;22.10;94.60;;;;;;4149157;28;20081;-76
2021/06/12 02:33:14;;;;;;;3.53;1.52;;;22.10;94.50;;;;;;4149945;28;20053;-74
2021/06/12 02:35:17;;;;;;;4.30;1.40;;;22.10;94.50;;;;;;4149779;28;20054;-75
2021/06/12 02:37:21;;;;;;;3.85;1.40;;;22.10;94.40;;;;;;4148505;28;20062;-74
2021/06/12 02:39:25;;;;;;;2.22;1.25;;;22.00;94.90;;;;;;4149278;28;20054;-73
2021/06/12 02:41:28;;;;;;;2.60;1.48;;;22.10;94.30;;;;;;4148798;28;20050;-75
2021/06/12 02:43:32;;;;;;;3.35;1.00;;;22.00;94.80;;;;;;4148301;28;20615;-78
2021/06/12 02:45:35;;;;;;;5.88;0.98;;;22.10;94.40;;;;;;4148206;28;20120;-75
2021/06/12 02:47:46;;;;;;;6.13;1.00;;;22.00;94.20;;;;;;4147939;28;20054;-74
2021/06/12 02:49:50;;;;;;;1.77;1.05;;;22.10;94.00;;;;;;4147937;28;20061;-74
2021/06/12 02:51:58;;;;;;;5.10;1.20;;;22.10;94.10;;;;;;4147901;28;20108;-74
2021/06/12 02:54:03;;;;;;;1.38;0.93;;;22.00;94.10;;;;;;4148060;28;20490;-73
2021/06/12 02:56:07;;;;;;;2.15;1.10;;;22.00;94.10;;;;;;4130692;28;20116;-74
2021/06/12 02:58:12;;;;;;;2.92;1.13;;;21.90;94.40;;;;;;4147306;28;20053;-74
2021/06/12 03:00:19;;;;;;;1.90;0.90;;;22.00;94.30;;;;;;4130735;28;20101;-77
2021/06/12 03:02:22;;;;;;;2.75;1.08;;;21.90;94.30;;;;;;4147998;28;20505;-75
2021/06/12 03:04:26;;;;;;;1.15;0.85;;;21.90;94.40;;;;;;4148323;28;20058;-76
2021/06/12 03:06:31;;;;;;;2.13;1.10;;;21.90;94.60;;;;;;4148269;28;20049;-76
2021/06/12 03:08:37;;;;;;;1.57;1.07;;;21.70;94.80;;;;;;4147721;28;20115;-79
2021/06/12 03:10:43;;;;;;;1.83;1.10;;;21.70;94.90;;;;;;4148176;28;20471;-77
2021/06/12 03:12:47;;;;;;;1.13;1.00;;;21.60;95.20;;;;;;4148963;28;20058;-82
2021/06/12 03:14:51;;;;;;;4.40;1.10;;;21.70;94.60;;;;;;4154511;28;20053;-81
2021/06/12 03:16:55;;;;;;;1.58;1.00;;;21.80;94.70;;;;;;4159442;28;20666;-80
2021/06/12 03:19:00;;;;;;;2.28;1.40;;;21.50;95.00;;;;;;4158570;28;20060;-77
2021/06/12 03:21:04;;;;;;;2.20;1.10;;;21.40;95.30;;;;;;4153013;28;20058;-76
2021/06/12 03:23:08;;;;;;;1.55;1.10;;;21.40;95.40;;;;;;4156602;28;20103;-75
2021/06/12 03:25:12;;;;;;;1.80;1.10;;;21.40;95.20;;;;;;4153514;28;20061;-77
2021/06/12 03:27:17;;;;;;;2.35;1.00;;;21.20;95.60;;;;;;4153311;28;20054;-77
2021/06/12 03:29:20;;;;;;;1.30;1.02;;;21.00;95.90;;;;;;4152710;28;20384;-81
2021/06/12 03:31:24;;;;;;;2.70;1.10;;;20.80;96.10;;;;;;4155477;28;20054;-76
2021/06/12 03:33:28;;;;;;;1.63;1.02;;;20.80;96.30;;;;;;4153645;28;20109;-75
2021/06/12 03:35:32;;;;;;;2.35;1.10;;;20.80;96.60;;;;;;4150354;28;20120;-78
2021/06/12 03:37:37;;;;;;;2.20;1.20;;;20.70;96.80;;;;;;4150194;28;20124;-75
2021/06/12 03:39:40;;;;;;;2.67;1.33;;;20.70;96.70;;;;;;4150136;28;20045;-74
2021/06/12 03:41:44;;;;;;;2.25;1.25;;;20.80;96.80;;;;;;4150067;28;20046;-77
2021/06/12 03:43:50;;;;;;;8.48;1.30;;;20.90;96.30;;;;;;4150046;28;20151;-75
2021/06/12 03:45:58;;;;;;;1.70;1.30;;;21.00;96.40;;;;;;4149089;28;20050;-75
2021/06/12 03:48:03;;;;;;;2.28;1.15;;;21.00;96.10;;;;;;4148339;28;20057;-76
2021/06/12 03:50:07;;;;;;;;;;;21.00;96.20;;;;;;4149263;28;20462;-82
2021/06/12 03:52:11;;;;;;;2.83;1.20;;;21.00;96.20;;;;;;4154838;28;19922;-83
2021/06/12 03:54:15;;;;;;;2.75;1.10;;;21.10;96.00;;;;;;4155328;28;20324;-82
2021/06/12 03:56:19;;;;;;;4.13;1.60;;;21.20;95.70;;;;;;4151107;28;20054;-74
2021/06/12 03:58:23;;;;;;;3.83;1.45;;;21.10;96.20;;;;;;4149177;28;20050;-74
2021/06/12 04:00:28;;;;;;;2.33;1.30;;;21.00;96.30;;;;;;4147951;28;20057;-75
2021/06/12 04:02:31;;;;;;;2.05;1.42;;;20.90;96.70;;;;;;4147879;28;20357;-76
2021/06/12 04:04:34;;;;;;;5.05;2.20;;;20.90;96.60;;;;;;4147128;28;20065;-74
2021/06/12 04:06:38;;;;;;;7.43;1.90;;;20.90;96.80;;;;;;4146948;28;20054;-78
2021/06/12 04:08:41;;;;;;;2.72;1.70;;;20.80;97.00;;;;;;4156489;28;20057;-74
2021/06/12 04:10:44;;;;;;;2.47;1.73;;;20.70;97.00;;;;;;4161827;28;20058;-75
2021/06/12 04:12:47;;;;;;;2.72;1.67;;;20.80;96.80;;;;;;4161838;28;20061;-75
2021/06/12 04:14:50;;;;;;;2.70;1.73;;;20.90;97.00;;;;;;4162079;28;20064;-73
2021/06/12 04:16:55;;;;;;;7.15;1.70;;;20.90;96.60;;;;;;4163346;28;20057;-76
2021/06/12 04:19:00;;;;;;;2.60;1.55;;;20.90;96.50;;;;;;4162852;28;20077;-76
2021/06/12 04:21:04;;;;;;;2.65;1.80;;;21.10;96.50;;;;;;4162696;28;20061;-74
2021/06/12 04:23:07;;;;;;;3.92;1.80;;;21.10;96.50;;;;;;4162970;28;20061;-74
2021/06/12 04:25:11;;;;;;;3.70;1.67;;;21.10;96.40;;;;;;4163063;28;20065;-77
2021/06/12 04:27:14;;;;;;;3.58;1.83;;;21.10;96.50;;;;;;4163082;28;20092;-76
2021/06/12 04:29:17;;;;;;;1.83;1.52;;;21.20;95.60;;;;;;4162682;28;20053;-74
2021/06/12 04:31:20;;;;;;;3.25;1.63;;;21.30;95.70;;;;;;4163078;28;20119;-76
2021/06/12 04:33:25;;;;;;;1.60;1.48;;;21.30;95.40;;;;;;4163263;28;20495;-74
2021/06/12 04:35:28;;;;;;;3.13;1.40;;;21.30;95.80;;;;;;4163031;28;20065;-75
2021/06/12 04:37:31;;;;;;;6.25;1.80;;;21.20;96.10;;;;;;4166425;28;20053;-78
2021/06/12 04:39:34;;;;;;;3.75;1.80;;;21.10;96.20;;;;;;4169019;28;20057;-82
2021/06/12 04:41:37;;;;;;;3.00;1.80;;;21.10;95.90;;;;;;4170730;28;20061;-84
2021/06/12 04:43:41;;;;;;;2.17;1.70;;;21.10;96.40;;;;;;4169317;28;20080;-84
2021/06/12 04:45:44;;;;;;;3.20;1.88;;;20.90;96.80;;;;;;4148867;28;20062;-74
2021/06/12 04:47:47;;;;;;;2.58;1.60;;;20.90;96.80;;;;;;4166064;28;20556;-74
2021/06/12 04:49:51;;;;;;;2.45;1.90;;;20.80;97.00;;;;;;4166106;28;20486;-73
2021/06/12 04:51:54;;;;;;;3.15;1.92;;;20.70;97.40;;;;;;4166106;28;20065;-76
2021/06/12 04:53:57;;;;;;;2.75;1.90;;;20.80;97.10;;;;;;4166631;28;20053;-75
2021/06/12 04:56:00;;;;;;;2.78;2.00;;;20.60;97.40;;;;;;4167596;28;20068;-75
2021/06/12 04:58:04;;;;;;;3.10;2.00;;;20.30;97.90;;;;;;4167755;28;20449;-79
2021/06/12 05:00:09;;;;;;;5.22;1.92;;;20.40;97.90;;;;;;4168370;28;20049;-75
2021/06/12 05:02:13;;;;;;;3.42;2.00;;;20.50;97.80;;;;;;4173911;28;20054;-75
2021/06/12 05:04:17;;;;;;;5.37;2.50;;;20.40;98.10;;;;;;4172221;28;20057;-74
2021/06/12 05:06:21;;;;;;;4.30;2.10;;;20.50;97.80;;;;;;4170501;28;20481;-75
2021/06/12 05:08:24;;;;;;;3.13;2.33;;;20.50;97.90;;;;;;4174689;28;20063;-76
2021/06/12 05:10:27;;;;;;;3.33;2.10;;;20.40;98.20;;;;;;4174795;28;20049;-78
2021/06/12 05:12:30;;;;;;;3.20;2.05;;;20.60;97.70;;;;;;4168895;28;20516;-74
2021/06/12 05:14:33;;;;;;;2.22;1.80;;;20.60;97.80;;;;;;4166944;28;20054;-76
2021/06/12 05:16:37;;;;;;;3.78;2.08;;;20.70;97.80;;;;;;4166659;28;20462;-76
2021/06/12 05:18:43;;;;;;;3.42;2.03;;;20.80;97.20;;;;;;4166761;28;20061;-74
2021/06/12 05:20:46;;;;;;;3.33;2.03;;;20.90;96.70;;;;;;4165978;28;20065;-75
2021/06/12 05:22:50;;;;;;;4.07;1.77;;;20.90;97.20;;;;;;4165866;28;20091;-74
2021/06/12 05:24:54;;;;;;;3.60;2.00;;;20.90;96.80;;;;;;4165998;28;20614;-76
2021/06/12 05:26:59;;;;;;;7.57;2.10;;;21.00;96.80;;;;;;4166523;28;20053;-73
2021/06/12 05:29:03;;;;;;;2.80;2.00;;;21.10;96.10;;;;;;4166472;28;20413;-80
2021/06/12 05:31:05;;;;;;;3.15;1.88;;;21.10;96.30;;;;;;4166973;28;20107;-74
2021/06/12 05:33:09;;;;;;;3.42;1.92;;;21.20;96.20;;;;;;4149294;28;20092;-75
2021/06/12 05:35:12;;;;;;;3.33;1.95;;;21.20;96.30;;;;;;4166268;28;20124;-75
2021/06/12 05:37:15;;;;;;;5.25;2.10;;;21.40;95.70;;;;;;4165249;28;20075;-74
2021/06/12 05:39:19;;;;;;;4.10;2.58;;;21.30;96.20;;;;;;4166107;28;20064;-74
2021/06/12 05:41:22;;;;;;;5.15;2.05;;;21.30;96.50;;;;;;4165557;28;20053;-75
2021/06/12 05:43:26;;;;;;;4.85;2.30;;;21.30;96.30;;;;;;4150201;28;20058;-82
2021/06/12 05:45:29;;;;;;;2.78;2.22;;;21.30;96.50;;;;;;4167654;28;20495;-80
2021/06/12 05:47:32;;;;;;;6.85;2.13;;;21.20;96.70;;;;;;4166123;28;20060;-75
2021/06/12 05:49:35;;;;;;;2.92;2.13;;;21.30;96.70;;;;;;4165334;28;20061;-75
2021/06/12 05:51:38;;;;;;;8.15;2.45;;;21.20;96.60;;;;;;4165397;28;20426;-75
2021/06/12 05:53:41;;;;;;;4.18;2.10;;;21.30;96.60;;;;;;4169472;28;20057;-82
2021/06/12 05:55:45;;;;;;;5.95;2.45;;;21.40;96.20;;;;;;4172250;28;20119;-80
2021/06/12 05:57:48;;;;;;;3.33;1.92;;;21.30;96.40;;;;;;4171811;28;20053;-76
2021/06/12 05:59:51;;;;;;;3.90;1.65;;;21.10;96.20;;;;;;4167031;28;20053;-79
2021/06/12 06:01:54;;;;;;;3.55;2.00;;;21.20;96.10;;;;;;4150526;28;20054;-79
2021/06/12 06:03:58;;;;;;;4.32;1.60;;;21.20;96.10;;;;;;4167801;28;20057;-75
2021/06/12 06:06:01;;;;;;;3.50;2.47;;;21.30;96.00;;;;;;4167069;28;20266;-78
2021/06/12 06:08:05;;;;;;;6.65;2.63;;;21.00;96.50;;;;;;4160743;28;20066;-74
2021/06/12 06:10:08;;;;;;;4.00;2.40;;;21.10;96.80;;;;;;4150237;28;20061;-74
2021/06/12 06:12:13;;;;;;;5.13;2.88;;;21.20;96.40;;;;;;4149718;28;20061;-77
2021/06/12 06:14:16;;;;;;;5.95;2.92;;;21.30;96.40;;;;;;4149045;28;20060;-75
2021/06/12 06:16:19;;;;;;;4.88;2.65;;;21.20;96.70;;;;;;4131041;28;20054;-81
2021/06/12 06:18:22;;;;;;;5.05;2.97;;;21.30;96.50;;;;;;4148871;28;20530;-78
2021/06/12 06:20:25;;;;;;;5.25;2.58;;;21.50;95.90;;;;;;4148605;28;20135;-74
2021/06/12 06:22:28;;;;;;;5.10;2.35;;;21.60;95.90;;;;;;4148723;28;20050;-72
2021/06/12 06:24:31;;;;;;;6.45;2.60;;;21.60;95.80;;;;;;4148394;28;20058;-76
2021/06/12 06:26:34;;;;;;;3.90;2.13;;;21.50;95.90;;;;;;4130905;28;20065;-79
2021/06/12 06:28:39;;;;;;;7.18;2.80;;;21.70;95.90;;;;;;4159209;28;20061;-75
2021/06/12 06:30:42;;;;;;;9.52;2.47;;;21.70;95.70;;;;;;4165438;28;20053;-75
2021/06/12 06:32:45;;;;;;;5.75;2.63;;;21.70;95.60;;;;;;4165640;28;20485;-74
2021/06/12 06:34:48;;;;;;;5.05;2.63;;;21.70;95.50;;;;;;4164878;28;20091;-74
2021/06/12 06:36:51;;;;;;;4.07;2.40;;;21.40;95.60;;;;;;4164827;28;20065;-78
2021/06/12 06:38:54;;;;;;;2.80;2.15;;;21.40;95.80;;;;;;4164894;28;20437;-77
2021/06/12 06:40:58;;;;;;;4.88;2.63;;;21.60;95.60;;;;;;4164740;28;20486;-73
2021/06/12 06:43:01;;;;;;;8.18;2.53;;;21.70;95.50;;;;;;4147702;28;20118;-74
2021/06/12 06:45:07;;;;;;;7.18;2.20;;;21.60;95.70;;;;;;4164080;28;20053;-74
2021/06/12 06:47:10;;;;;;;5.28;2.30;;;21.60;95.80;;;;;;4164429;28;20057;-79
2021/06/12 06:49:13;;;;;;;5.53;2.35;;;21.80;95.50;;;;;;4164399;28;20058;-76
2021/06/12 06:51:16;;;;;;;5.35;2.53;;;22.00;95.30;;;;;;4165876;28;20056;-79
2021/06/12 06:53:19;;;;;;;5.20;2.45;;;22.00;95.00;;;;;;4167836;28;20095;-81
2021/06/12 06:55:22;;;;;;;3.25;2.10;;;21.90;94.90;;;;;;4182254;28;20101;-79
2021/06/12 06:57:25;;;;;;;5.30;2.67;;;22.00;94.90;;;;;;4169829;28;20096;-75
2021/06/12 06:59:30;;;;;;;6.72;2.72;;;22.00;94.90;;;;;;4166397;28;20103;-75
2021/06/12 07:01:37;;;;;;;4.20;2.30;;;21.90;94.80;;;;;;4166293;28;20064;-80
2021/06/12 07:03:40;;;;;;;4.18;2.67;;;21.80;94.80;;;;;;4169643;28;20388;-80
2021/06/12 07:05:49;;;;;;;5.93;2.97;;;21.90;95.10;;;;;;4168785;28;20088;-80
2021/06/12 07:07:52;;;;;;;4.65;2.90;;;21.90;94.60;;;;;;4165973;28;20063;-73
2021/06/12 07:09:55;;;;;;;3.20;2.90;;;21.90;94.70;;;;;;4164363;28;20053;-76
2021/06/12 07:12:01;;;;;;;4.47;2.67;;;22.00;94.70;;;;;;4164596;28;20414;-74
2021/06/12 07:14:04;;;;;;;4.25;2.50;;;22.10;94.70;;;;;;4164281;28;20127;-77
2021/06/12 07:16:07;;;;;;;4.63;2.92;;;22.20;94.50;;;;;;4163676;28;20061;-75
2021/06/12 07:18:13;;;;;;;9.27;3.42;;;21.80;94.90;;;;;;4164553;28;20073;-74
2021/06/12 07:20:16;;;;;;;11.02;3.60;;;21.90;95.10;;;;;;4164050;28;20073;-75
2021/06/12 07:22:19;;;;;;;3.28;2.92;;;22.00;95.20;;;;;;4164472;28;20111;-76
2021/06/12 07:24:22;;;;;;;8.98;3.13;;;22.20;94.90;;;;;;4168383;28;20446;-82
2021/06/12 07:26:25;;;;;;;5.05;3.20;;;22.20;94.90;;;;;;4169972;28;20483;-80
2021/06/12 07:28:29;;;;;;;6.25;3.20;;;22.20;95.00;;;;;;4153519;28;20050;-74
2021/06/12 07:30:38;;;;;;;10.37;3.20;;;22.40;94.70;;;;;;4169112;28;20466;-77
2021/06/12 07:32:41;;;;;;;4.53;2.80;;;22.30;94.70;;;;;;4167865;28;20057;-75
2021/06/12 07:34:46;;;;;;;5.45;3.10;;;22.30;94.70;;;;;;4164690;28;20057;-75
2021/06/12 07:36:49;;;;;;;6.68;3.58;;;22.10;94.80;;;;;;4164092;28;20142;-75
2021/06/12 07:38:52;;;;;;;4.10;3.20;;;22.40;94.80;;;;;;4164120;28;20655;-75
2021/06/12 07:40:55;;;;;;;4.25;2.75;;;22.30;94.50;;;;;;4163727;28;20057;-74
2021/06/12 07:42:58;;;;;;;3.35;2.95;;;22.30;94.40;;;;;;4164276;28;20060;-76
2021/06/12 07:45:03;;;;;;;6.20;3.30;;;22.40;94.50;;;;;;4163563;28;20056;-75
2021/06/12 07:47:06;;;;;;;9.43;4.07;;;22.40;94.00;;;;;;4164363;28;20061;-74
2021/06/12 07:49:11;;;;;;;5.57;3.33;;;22.00;94.70;;;;;;4163958;28;20112;-77
2021/06/12 07:51:16;;;;;;;8.02;3.42;;;22.20;94.80;;;;;;4163615;28;20131;-76
2021/06/12 07:53:19;;;;;;;9.02;3.65;;;22.30;94.40;;;;;;4164102;28;20065;-76
2021/06/12 07:55:22;;;;;;;5.20;3.45;;;22.30;94.10;;;;;;4164254;28;20045;-79
2021/06/12 07:57:25;;;;;;;5.18;3.90;;;22.50;93.90;;;;;;4169715;28;20498;-79
2021/06/12 07:59:28;;;;;;;4.75;3.95;;;22.50;93.80;;;;;;4175134;28;20053;-80
2021/06/12 08:01:33;;;;;;;5.50;3.72;;;22.60;93.70;;;;;;4172443;28;20064;-75
2021/06/12 08:03:36;;;;;;;6.13;4.20;;;22.30;94.10;;;;;;4169493;28;20050;-75
2021/06/12 08:05:40;;;;;;;5.32;4.32;;;21.80;94.70;;;;;;4168949;28;20057;-74
2021/06/12 08:07:44;;;;;;;5.00;4.45;;;21.70;95.10;;;;;;4162689;28;20049;-74
2021/06/12 08:09:49;;;;;;;6.95;5.85;;;21.60;95.30;;;;;;4152046;28;20491;-77
2021/06/12 08:11:53;;;;;;;7.53;5.40;;;21.60;95.50;;;;;;4152405;28;20140;-74
2021/06/12 08:13:56;;;;;;;9.02;6.05;;;21.80;95.20;;;;;;4150439;28;20050;-76
2021/06/12 08:15:59;;;;;;;9.48;6.50;;;21.80;95.00;;;;;;4149881;28;20069;-74
2021/06/12 08:18:02;;;;;;;10.35;7.05;;;21.90;95.20;;;;;;4149438;28;20064;-75
2021/06/12 08:20:06;;;;;;;8.95;7.35;;;22.00;95.10;;;;;;4149962;28;20134;-76
2021/06/12 08:25:47;;;;;;;11.13;7.80;;;22.10;94.50;;;;;;4131260;28;20619;-72
2021/06/12 08:36:38;;;;;;;14.88;10.05;;;21.80;95.40;;;;;;4128312;28;20050;-77
2021/06/12 08:38:41;;;;;;;14.32;11.45;;;21.60;95.80;;;;;;4132758;28;20054;-79
2021/06/12 08:40:48;;;;;;;14.50;11.10;;;21.80;95.90;;;;;;4132174;28;20051;-77
2021/06/12 08:42:55;;;;;;;12.05;10.75;;;22.00;95.50;;;;;;4106277;28;20043;-78
2021/06/12 08:45:03;;;;;;;12.75;10.38;;;22.30;95.20;;;;;;4134188;28;20062;-78
2021/06/12 08:47:07;;;;;;;14.13;10.20;;;22.40;94.70;;;;;;4134803;28;20058;-74
2021/06/12 08:49:11;;;;;;;10.77;9.05;;;22.80;94.40;;;;;;4136444;28;20073;-74
2021/06/12 08:51:15;;;;;;;10.60;9.15;;;23.10;93.90;;;;;;4124935;28;20085;-74
2021/06/12 08:53:18;;;;;;;13.77;10.77;;;22.80;93.40;;;;;;4136629;28;20058;-75
2021/06/12 08:55:22;;;;;;;13.50;9.98;;;22.70;93.50;;;;;;4132075;28;20053;-76
2021/06/12 08:57:26;;;;;;;12.65;10.35;;;22.60;94.10;;;;;;4117990;28;20055;-74
2021/06/12 08:59:34;;;;;;;15.07;10.15;;;22.80;94.00;;;;;;4135185;28;20043;-76
2021/06/12 09:01:37;;;;;;;12.05;8.50;;;22.90;93.40;;;;;;4132080;28;20061;-75
2021/06/12 09:03:42;;;;;;;15.73;9.32;;;22.90;93.10;;;;;;4132494;28;20114;-75
2021/06/12 09:08:38;;;;;;;13.77;9.18;;;22.80;93.30;;;;;;4434115;22;20124;-77
2021/06/12 09:13:48;;;;;;;13.32;9.23;;;23.00;93.50;;;;;;4107786;28;20157;-78
2021/06/12 09:15:57;;;;;;;11.52;8.32;;;23.20;92.70;;;;;;4099536;28;20085;-77
2021/06/12 09:18:00;;;;;;;13.75;9.55;;;23.40;92.70;;;;;;4113706;28;20063;-76
2021/06/12 09:20:07;;;;;;;14.23;9.35;;;23.50;92.00;;;;;;4112196;28;20134;-75
2021/06/12 09:22:10;;;;;;;14.65;9.02;;;23.30;92.40;;;;;;4113448;28;20523;-74
2021/06/12 09:24:25;;;;;;;16.50;8.88;;;23.40;92.70;;;;;;4115958;28;20051;-73
2021/06/12 09:26:43;;;;;;;12.73;9.45;;;23.50;92.40;;;;;;4114374;28;20627;-73
2021/06/12 09:28:51;;;;;;;22.55;9.82;;;23.30;92.40;;;;;;4098509;29;20149;-73
2021/06/12 09:31:13;;;;;;;14.50;8.23;;;23.20;92.80;;;;;;4098204;28;20056;-75
2021/06/12 09:34:15;;;;;;;15.75;8.20;;;23.30;92.50;;;;;;4102933;28;20069;-79
2021/06/12 09:36:34;;;;;;;13.13;8.48;;;23.30;92.40;;;;;;4110870;28;20496;-73
2021/06/12 09:38:38;;;;;;;12.27;8.00;;;23.10;92.40;;;;;;4113666;28;20065;-76
2021/06/12 09:40:41;;;;;;;11.50;6.35;;;23.30;92.30;;;;;;4114166;28;20085;-79
2021/06/12 09:42:47;;;;;;;10.60;6.78;;;23.50;92.20;;;;;;4114706;28;20412;-77
2021/06/12 09:44:52;;;;;;;15.27;7.78;;;23.10;92.20;;;;;;4114866;28;20054;-75
2021/06/12 09:46:56;;;;;;;10.75;6.93;;;22.80;92.90;;;;;;4114346;28;20746;-79
2021/06/12 09:48:59;;;;;;;10.68;5.95;;;23.00;93.10;;;;;;4114236;28;20062;-80
2021/06/12 09:51:10;;;;;;;8.38;5.15;;;23.00;92.50;;;;;;4114300;28;20054;-76
2021/06/12 09:53:18;;;;;;;9.80;4.93;;;23.40;92.30;;;;;;4114382;28;20404;-76
2021/06/12 09:55:24;;;;;;;8.15;5.10;;;23.50;91.50;;;;;;4114984;28;20046;-75
2021/06/12 09:57:28;;;;;;;9.95;5.00;;;23.60;91.80;;;;;;4114654;28;20046;-74
2021/06/12 09:59:38;;;;;;;9.82;4.20;;;23.90;91.80;;;;;;4114790;28;20058;-75
2021/06/12 10:01:49;;;;;;;8.10;5.28;;;24.10;91.30;;;;;;4113928;28;20055;-74
2021/06/12 10:04:08;;;;;;;7.15;4.20;;;24.20;90.70;;;;;;4143111;28;20510;-74
2021/06/12 10:06:13;;;;;;;11.15;4.95;;;24.40;91.00;;;;;;4098299;28;20047;-74
2021/06/12 10:08:18;;;;;;;8.95;4.60;;;24.50;90.50;;;;;;4148371;28;20496;-75
2021/06/12 10:10:21;;;;;;;8.10;4.40;;;24.20;90.10;;;;;;4197684;28;20045;-75
2021/06/12 10:12:25;;;;;;;10.70;5.40;;;24.40;90.60;;;;;;4197177;28;20114;-74
2021/06/12 10:14:28;;;;;;;6.85;4.13;;;24.70;90.00;;;;;;4198626;28;20068;-73
2021/06/12 10:16:37;;;;;;;6.05;3.80;;;24.80;88.90;;;;;;4198448;28;20107;-73
2021/06/12 10:18:43;;;;;;;7.75;4.30;;;24.60;90.20;;;;;;4197487;28;20061;-75
2021/06/12 10:20:47;;;;;;;4.68;3.10;;;24.70;89.80;;;;;;4189606;28;20626;-71
2021/06/12 10:22:53;;;;;;;4.70;2.97;;;24.50;88.30;;;;;;4113914;28;20081;-73
2021/06/12 10:24:57;;;;;;;8.00;3.17;;;24.40;90.10;;;;;;4190042;28;20052;-72
2021/06/12 10:27:01;;;;;;;7.35;2.38;;;24.70;90.00;;;;;;4208750;28;20052;-74
2021/06/12 10:29:08;;;;;;;2.85;2.47;;;24.40;89.50;;;;;;4127342;28;20062;-76
2021/06/12 10:31:15;;;;;;;3.95;2.88;;;24.50;90.00;;;;;;4112804;28;20165;-73
2021/06/12 10:33:21;;;;;;;7.50;3.08;;;24.70;89.00;;;;;;4097046;28;20565;-75
2021/06/12 10:35:28;;;;;;;4.30;2.38;;;24.80;90.00;;;;;;4080919;28;20552;-76
2021/06/12 10:37:46;;;;;;;;;;;24.70;88.60;;;;;;4097864;28;20058;-78
2021/06/12 10:40:02;;;;;;;3.95;2.50;;;24.40;89.70;;;;;;4096260;28;19930;-77
2021/06/12 10:42:11;;;;;;;7.20;2.95;;;24.60;90.20;;;;;;4113845;28;20054;-77
2021/06/12 10:44:27;;;;;;;4.20;2.72;;;24.60;89.80;;;;;;4130745;28;20522;-74
2021/06/12 10:46:31;;;;;;;4.03;2.78;;;24.60;90.00;;;;;;4114549;28;20059;-75
2021/06/12 10:48:46;;;;;;;5.35;2.60;;;24.40;90.00;;;;;;4113038;28;20065;-74
2021/06/12 10:50:51;;;;;;;4.72;3.53;;;24.60;89.20;;;;;;4113409;28;20058;-74
2021/06/12 10:53:19;;;;;;;5.18;2.55;;;24.50;89.20;;;;;;4114661;28;20538;-75
2021/06/12 10:55:40;;;;;;;4.40;2.47;;;24.70;90.00;;;;;;4115059;28;20051;-76
2021/06/12 10:57:43;;;;;;;5.93;2.15;;;24.70;88.90;;;;;;4114327;28;20528;-74
2021/06/12 10:59:50;;;;;;;4.30;2.20;;;24.60;89.40;;;;;;4115640;28;20111;-77
2021/06/12 11:02:02;;;;;;;2.28;2.08;;;24.90;89.00;;;;;;4147265;28;20054;-75
2021/06/12 11:04:18;;;;;;;3.50;2.22;;;25.00;89.00;;;;;;4135052;28;20054;-74
2021/06/12 11:06:41;;;;;;;3.58;2.05;;;24.90;87.50;;;;;;4113571;28;20062;-73
2021/06/12 11:09:05;;;;;;;3.70;2.15;;;25.00;88.00;;;;;;4180458;28;20525;-75
2021/06/12 11:11:32;;;;;;;2.38;1.73;;;24.50;87.90;;;;;;4202870;28;20166;-73